createdAt,value
2017-07-25T00:00:54.993Z,21.47
2017-07-25T00:03:22.541Z,22.03
2017-07-25T00:05:50.078Z,21.27
2017-07-25T00:08:17.634Z,21.00
2017-07-25T00:10:45.148Z,19.90
2017-07-25T00:13:12.661Z,22.93
2017-07-25T00:15:40.210Z,19.60
2017-07-25T00:18:07.719Z,18.70
2017-07-25T00:20:35.265Z,20.60
2017-07-25T00:23:02.790Z,20.87
2017-07-25T00:25:30.393Z,19.97
2017-07-25T00:27:57.909Z,19.83
2017-07-25T00:30:25.433Z,21.17
2017-07-25T00:32:52.989Z,20.00
2017-07-25T00:35:20.496Z,21.00
2017-07-25T00:37:48.060Z,20.53
2017-07-25T00:40:15.644Z,20.03
2017-07-25T00:42:43.153Z,20.90
2017-07-25T00:45:10.698Z,20.87
2017-07-25T00:47:38.286Z,20.43
2017-07-25T00:50:05.793Z,19.23
2017-07-25T00:52:33.308Z,19.97
2017-07-25T00:55:00.845Z,19.57
2017-07-25T00:57:28.393Z,20.90
2017-07-25T00:59:55.990Z,20.03
2017-07-25T01:02:23.507Z,18.47
2017-07-25T01:04:51.022Z,17.83
2017-07-25T01:07:18.588Z,18.13
2017-07-25T01:09:46.109Z,20.30
2017-07-25T01:12:13.612Z,19.67
2017-07-25T01:14:41.162Z,17.90
2017-07-25T01:17:08.665Z,18.50
2017-07-25T01:19:36.230Z,18.80
2017-07-25T01:22:03.745Z,18.67
2017-07-25T01:24:31.290Z,17.80
2017-07-25T01:26:58.843Z,18.87
2017-07-25T01:29:26.357Z,18.00
2017-07-25T01:31:53.874Z,16.97
2017-07-25T01:34:21.469Z,17.70
2017-07-25T01:36:48.993Z,17.03
2017-07-25T01:39:16.542Z,16.77
2017-07-25T01:41:44.061Z,16.27
2017-07-25T01:46:45.257Z,16.87
2017-07-25T01:49:12.811Z,16.70
2017-07-25T01:51:40.326Z,17.37
2017-07-25T01:54:07.921Z,14.83
2017-07-25T01:56:35.440Z,16.90
2017-07-25T01:59:02.962Z,15.87
2017-07-25T02:01:30.509Z,16.73
2017-07-25T02:03:58.021Z,14.83
2017-07-25T02:06:25.571Z,16.23
2017-07-25T02:08:53.085Z,14.60
2017-07-25T02:11:20.637Z,15.47
2017-07-25T02:13:48.204Z,16.17
2017-07-25T02:16:15.753Z,14.70
2017-07-25T02:18:43.281Z,14.93
2017-07-25T02:21:10.854Z,14.53
2017-07-25T02:23:38.367Z,16.40
2017-07-25T02:26:05.878Z,15.53
2017-07-25T02:28:33.420Z,14.17
2017-07-25T02:31:00.927Z,14.53
2017-07-25T02:33:28.520Z,16.10
2017-07-25T02:35:56.062Z,16.20
2017-07-25T02:38:23.568Z,15.00
2017-07-25T02:40:51.151Z,15.60
2017-07-25T02:43:18.704Z,14.93
2017-07-25T02:45:46.260Z,14.07
2017-07-25T02:48:13.804Z,15.03
2017-07-25T02:50:41.356Z,15.70
2017-07-25T02:53:08.863Z,16.80
2017-07-25T02:55:36.418Z,15.30
2017-07-25T02:58:03.925Z,16.10
2017-07-25T03:00:31.446Z,14.93
2017-07-25T03:02:59.002Z,14.13
2017-07-25T03:05:26.549Z,14.67
2017-07-25T03:07:54.118Z,13.30
2017-07-25T03:10:21.672Z,15.30
2017-07-25T03:12:49.225Z,13.07
2017-07-25T03:15:16.784Z,14.83
2017-07-25T03:17:44.346Z,15.27
2017-07-25T03:20:11.913Z,13.43
2017-07-25T03:22:39.439Z,15.40
2017-07-25T03:25:06.985Z,14.77
2017-07-25T03:27:34.563Z,14.43
2017-07-25T03:30:02.098Z,16.37
2017-07-25T03:32:29.608Z,14.10
2017-07-25T03:34:57.197Z,15.47
2017-07-25T03:37:24.748Z,14.50
2017-07-25T03:39:52.313Z,15.73
2017-07-25T03:42:19.867Z,14.60
2017-07-25T03:44:47.381Z,15.47
2017-07-25T03:47:14.937Z,16.20
2017-07-25T03:49:42.476Z,15.63
2017-07-25T03:52:10.057Z,14.87
2017-07-25T03:54:37.558Z,14.93
2017-07-25T03:57:05.117Z,19.17
2017-07-25T03:59:32.631Z,31.87
2017-07-25T04:02:00.172Z,16.33
2017-07-25T04:04:27.713Z,17.60
2017-07-25T04:06:55.314Z,17.00
2017-07-25T04:09:22.853Z,15.97
2017-07-25T04:11:50.385Z,16.27
2017-07-25T04:14:17.969Z,16.30
2017-07-25T04:16:45.476Z,31.97
2017-07-25T04:19:12.992Z,37.10
2017-07-25T04:21:40.553Z,90.83
2017-07-25T04:24:08.085Z,134.57
2017-07-25T04:26:35.600Z,120.47
2017-07-25T04:29:03.177Z,65.03
2017-07-25T04:31:30.701Z,60.43
2017-07-25T04:33:58.222Z,54.17
2017-07-25T04:36:25.821Z,39.07
2017-07-25T04:38:53.332Z,45.83
2017-07-25T04:41:20.864Z,38.07
2017-07-25T04:43:48.419Z,39.03
2017-07-25T04:46:15.965Z,33.37
2017-07-25T04:48:43.524Z,25.43
2017-07-25T04:51:11.094Z,30.73
2017-07-25T04:53:38.606Z,34.33
2017-07-25T04:56:06.126Z,23.97
2017-07-25T04:58:33.717Z,21.70
2017-07-25T05:01:01.277Z,25.10
2017-07-25T05:03:28.833Z,22.70
2017-07-25T05:05:56.459Z,27.83
2017-07-25T05:08:24.045Z,24.70
2017-07-25T05:10:51.604Z,17.00
2017-07-25T05:13:19.207Z,16.10
2017-07-25T05:15:46.827Z,15.23
2017-07-25T05:18:14.342Z,16.93
2017-07-25T05:20:41.852Z,16.90
2017-07-25T05:23:09.441Z,14.97
2017-07-25T05:25:36.957Z,16.50
2017-07-25T05:28:04.488Z,15.83
2017-07-25T05:30:32.062Z,17.63
2017-07-25T05:32:59.614Z,16.47
2017-07-25T05:35:27.165Z,16.33
2017-07-25T05:37:54.801Z,17.90
2017-07-25T05:40:22.411Z,17.20
2017-07-25T05:42:50.761Z,16.13
2017-07-25T05:45:18.395Z,17.03
2017-07-25T05:47:46.660Z,18.10
2017-07-25T05:50:16.042Z,16.23
2017-07-25T05:52:43.741Z,15.47
2017-07-25T05:55:11.305Z,16.07
2017-07-25T05:57:38.989Z,22.13
2017-07-25T06:00:08.667Z,17.73
2017-07-25T06:02:36.804Z,17.53
2017-07-25T06:05:04.418Z,16.03
2017-07-25T06:07:31.994Z,17.73
2017-07-25T06:10:00.409Z,17.67
2017-07-25T06:12:28.086Z,18.77
2017-07-25T06:14:55.872Z,17.97
2017-07-25T06:17:24.177Z,16.53
2017-07-25T06:19:51.893Z,17.40
2017-07-25T06:22:19.839Z,16.90
2017-07-25T06:24:47.717Z,25.30
2017-07-25T06:27:15.498Z,26.17
2017-07-25T06:30:07.872Z,18.70
2017-07-25T06:32:35.507Z,24.20
2017-07-25T06:35:04.121Z,17.63
2017-07-25T06:37:33.015Z,16.70
2017-07-25T06:40:05.001Z,16.40
2017-07-25T06:42:37.233Z,17.70
2017-07-25T06:45:05.430Z,18.77
2017-07-25T06:47:36.677Z,18.80
2017-07-25T06:50:07.566Z,21.97
2017-07-25T06:52:35.392Z,20.30
2017-07-25T06:55:06.395Z,18.70
2017-07-25T06:57:34.125Z,17.97
2017-07-25T07:05:40.673Z,18.60
2017-07-25T07:08:09.248Z,16.57
2017-07-25T07:10:45.530Z,17.83
2017-07-25T07:13:14.439Z,18.33
2017-07-25T07:15:42.597Z,16.83
2017-07-25T07:20:10.155Z,35.20
2017-07-25T07:22:38.253Z,18.20
2017-07-25T07:25:06.071Z,20.37
2017-07-25T07:27:33.866Z,20.10
2017-07-25T07:30:05.522Z,19.67
2017-07-25T07:32:33.418Z,16.27
2017-07-25T07:35:01.092Z,17.17
2017-07-25T07:37:38.695Z,17.50
2017-07-25T07:40:06.726Z,16.40
2017-07-25T07:42:37.427Z,17.97
2017-07-25T07:45:06.081Z,16.47
2017-07-25T07:47:35.880Z,16.33
2017-07-25T08:07:32.524Z,19.13
2017-07-25T08:48:20.285Z,18.73
2017-07-25T08:50:52.352Z,15.87
2017-07-25T08:53:35.006Z,17.43
2017-07-25T08:56:05.415Z,15.10
2017-07-25T08:58:59.734Z,14.90
2017-07-25T09:04:36.682Z,14.87
2017-07-25T09:07:11.050Z,14.67
2017-07-25T09:09:55.173Z,14.60
2017-07-25T09:12:31.739Z,15.10
2017-07-25T09:15:04.304Z,14.10
2017-07-25T09:17:32.498Z,15.73
2017-07-25T09:20:17.105Z,14.67
2017-07-25T09:22:48.617Z,14.37
2017-07-25T09:25:27.320Z,18.40
2017-07-25T09:34:39.933Z,17.10
2017-07-25T09:37:19.544Z,12.63
2017-07-25T09:39:54.575Z,10.67
2017-07-25T09:42:31.799Z,14.07
2017-07-25T09:45:03.366Z,12.10
2017-07-25T09:47:45.917Z,22.60
2017-07-25T09:50:22.450Z,10.73
2017-07-25T09:53:05.354Z,11.40
2017-07-25T09:56:12.788Z,10.90
2017-07-25T10:02:15.249Z,10.17
2017-07-25T10:04:57.520Z,12.63
2017-07-25T10:07:51.454Z,10.67
2017-07-25T10:10:40.787Z,9.87
2017-07-25T10:13:18.585Z,9.83
2017-07-25T10:15:50.889Z,10.30
2017-07-25T10:18:42.913Z,16.87
2017-07-25T10:27:19.142Z,14.83
2017-07-25T10:29:52.992Z,12.47
2017-07-25T10:32:24.595Z,12.27
2017-07-25T10:38:01.799Z,18.43
2017-07-25T10:40:35.651Z,18.77
2017-07-25T10:43:13.167Z,16.13
2017-07-25T10:54:33.871Z,8.77
2017-07-25T11:00:14.524Z,12.53
2017-07-25T11:09:17.322Z,12.03
2017-07-25T11:11:48.191Z,10.80
2017-07-25T11:14:39.094Z,17.13
2017-07-25T11:17:19.314Z,13.90
2017-07-25T11:19:52.886Z,15.50
2017-07-25T11:22:24.483Z,9.93
2017-07-25T11:24:52.795Z,11.00
2017-07-25T11:27:22.345Z,11.40
2017-07-25T11:33:16.588Z,9.60
2017-07-25T11:35:51.785Z,9.17
2017-07-25T11:38:29.274Z,10.97
2017-07-25T11:40:57.702Z,8.07
2017-07-25T11:43:25.716Z,11.93
2017-07-25T11:45:54.925Z,10.23
2017-07-25T11:48:25.191Z,10.73
2017-07-25T11:50:56.380Z,14.20
2017-07-25T11:53:31.288Z,18.67
2017-07-25T11:56:07.794Z,12.70
2017-07-25T11:58:35.942Z,14.27
2017-07-25T12:01:05.286Z,9.23
2017-07-25T12:03:42.602Z,11.47
2017-07-25T12:06:15.845Z,15.30
2017-07-25T12:09:02.268Z,10.13
2017-07-25T12:11:36.270Z,12.47
2017-07-25T12:14:04.461Z,11.37
2017-07-25T12:16:49.720Z,10.37
2017-07-25T12:22:09.415Z,16.10
2017-07-25T12:24:37.079Z,10.57
2017-07-25T12:27:05.059Z,11.33
2017-07-25T12:29:43.307Z,11.43
2017-07-25T12:32:13.688Z,10.67
2017-07-25T12:35:06.673Z,10.80
2017-07-25T12:37:36.889Z,11.53
2017-07-25T12:40:06.383Z,12.20
2017-07-25T12:42:39.146Z,12.27
2017-07-25T12:45:11.099Z,10.17
2017-07-25T12:47:44.435Z,10.93
2017-07-25T12:50:21.284Z,10.50
2017-07-25T12:52:56.589Z,10.53
2017-07-25T12:55:26.140Z,12.53
2017-07-25T12:57:56.922Z,10.00
2017-07-25T13:00:27.274Z,10.60
2017-07-25T13:02:56.545Z,15.57
2017-07-25T13:05:27.874Z,10.10
2017-07-25T13:07:56.804Z,9.90
2017-07-25T13:10:32.142Z,10.90
2017-07-25T13:13:03.057Z,10.90
2017-07-25T13:15:32.917Z,10.20
2017-07-25T13:18:05.205Z,10.60
2017-07-25T13:20:47.691Z,10.50
2017-07-25T13:23:17.427Z,10.37
2017-07-25T13:25:46.090Z,10.43
2017-07-25T13:28:14.887Z,9.33
2017-07-25T13:30:43.492Z,9.90
2017-07-25T13:33:11.658Z,15.00
2017-07-25T13:35:45.789Z,8.57
2017-07-25T13:38:17.457Z,7.47
2017-07-25T13:40:45.961Z,7.87
2017-07-25T13:43:16.390Z,6.70
2017-07-25T13:45:44.911Z,7.83
2017-07-25T13:48:14.929Z,8.13
2017-07-25T13:50:43.601Z,7.03
2017-07-25T13:53:16.371Z,6.67
2017-07-25T13:55:52.217Z,6.87
2017-07-25T13:58:21.139Z,7.10
2017-07-25T14:00:51.128Z,22.83
2017-07-25T14:06:13.203Z,12.40
2017-07-25T14:08:44.658Z,9.80
2017-07-25T14:11:13.499Z,9.17
2017-07-25T14:13:41.429Z,14.10
2017-07-25T14:16:10.495Z,9.73
2017-07-25T14:18:38.336Z,13.23
2017-07-25T14:21:07.444Z,8.90
2017-07-25T14:23:37.038Z,10.07
2017-07-25T14:26:05.843Z,8.80
2017-07-25T14:28:34.134Z,7.30
2017-07-25T14:31:02.645Z,9.00
2017-07-25T14:33:30.826Z,24.23
2017-07-25T14:36:00.472Z,11.23
2017-07-25T14:38:34.266Z,7.17
2017-07-25T14:41:02.058Z,9.50
2017-07-25T14:43:32.344Z,8.23
2017-07-25T14:46:00.966Z,7.07
2017-07-25T14:48:28.844Z,9.30
2017-07-25T14:50:57.364Z,12.83
2017-07-25T14:53:25.564Z,6.60
2017-07-25T14:55:53.323Z,6.97
2017-07-25T14:58:23.333Z,11.03
2017-07-25T15:00:58.250Z,7.33
2017-07-25T15:03:38.321Z,7.63
2017-07-25T15:06:07.072Z,7.53
2017-07-25T15:08:34.799Z,14.47
2017-07-25T15:11:02.670Z,7.17
2017-07-25T15:13:31.456Z,10.47
2017-07-25T15:15:59.118Z,7.20
2017-07-25T15:18:26.722Z,8.30
2017-07-25T15:20:54.284Z,6.67
2017-07-25T15:23:21.954Z,17.70
2017-07-25T15:28:23.838Z,8.20
2017-07-25T15:30:51.442Z,10.73
2017-07-25T15:33:19.078Z,5.90
2017-07-25T15:35:46.782Z,14.23
2017-07-25T15:38:14.352Z,14.23
2017-07-25T15:40:42.377Z,10.40
2017-07-25T15:43:10.017Z,12.13
2017-07-25T15:45:37.525Z,7.20
2017-07-25T15:48:05.145Z,7.83
2017-07-25T15:50:32.915Z,6.60
2017-07-25T15:53:00.459Z,17.63
2017-07-25T15:55:28.027Z,8.27
2017-07-25T15:57:55.616Z,6.93
2017-07-25T16:00:23.816Z,8.00
2017-07-25T16:02:51.421Z,5.10
2017-07-25T16:05:19.023Z,6.10
2017-07-25T16:07:46.638Z,6.70
2017-07-25T16:10:21.490Z,7.37
2017-07-25T16:12:49.313Z,5.03
2017-07-25T16:15:16.849Z,6.90
2017-07-25T16:17:44.441Z,6.50
2017-07-25T16:30:20.269Z,5.83
2017-07-25T16:32:48.167Z,4.90
2017-07-25T16:35:15.710Z,4.90
2017-07-25T16:37:43.292Z,5.30
2017-07-25T16:40:10.826Z,4.30
2017-07-25T16:42:38.390Z,6.40
2017-07-25T16:45:05.945Z,5.30
2017-07-25T16:47:33.480Z,4.20
2017-07-25T16:50:01.146Z,5.13
2017-07-25T16:52:28.675Z,4.30
2017-07-25T16:54:56.216Z,8.70
2017-07-25T16:57:23.778Z,3.67
2017-07-25T16:59:58.878Z,5.33
2017-07-25T17:02:26.449Z,4.33
2017-07-25T17:04:53.951Z,3.93
2017-07-25T17:07:21.498Z,6.40
2017-07-25T17:09:49.100Z,4.70
2017-07-25T17:12:16.620Z,5.30
2017-07-25T17:14:44.117Z,11.30
2017-07-25T17:17:11.677Z,5.50
2017-07-25T17:19:39.176Z,5.80
2017-07-25T17:22:06.727Z,5.60
2017-07-25T17:24:34.245Z,6.47
2017-07-25T17:27:01.801Z,6.20
2017-07-25T17:29:29.377Z,9.60
2017-07-25T17:31:56.969Z,6.00
2017-07-25T17:34:24.487Z,6.87
2017-07-25T17:36:52.138Z,5.30
2017-07-25T17:39:19.700Z,5.40
2017-07-25T17:41:47.356Z,6.43
2017-07-25T17:44:14.917Z,5.30
2017-07-25T17:46:42.465Z,5.57
2017-07-25T17:49:10.012Z,4.67
2017-07-25T17:51:37.511Z,5.00
2017-07-25T17:54:05.073Z,4.80
2017-07-25T17:56:32.596Z,4.77
2017-07-25T17:59:00.157Z,4.67
2017-07-25T18:01:27.661Z,4.67
2017-07-25T18:03:55.199Z,4.93
2017-07-25T18:06:22.748Z,4.67
2017-07-25T18:08:50.305Z,5.33
2017-07-25T18:11:19.668Z,5.23
2017-07-25T18:13:47.303Z,4.80
2017-07-25T18:16:14.878Z,6.07
2017-07-25T18:18:42.393Z,5.20
2017-07-25T18:21:09.901Z,4.77
2017-07-25T18:23:37.465Z,5.33
2017-07-25T18:26:04.969Z,5.43
2017-07-25T18:28:32.498Z,6.43
2017-07-25T18:31:00.057Z,5.57
2017-07-25T18:33:27.580Z,5.10
2017-07-25T18:35:55.090Z,5.23
2017-07-25T18:38:22.648Z,6.00
2017-07-25T18:40:50.177Z,4.43
2017-07-25T18:43:17.730Z,5.10
2017-07-25T18:45:45.295Z,4.90
2017-07-25T18:48:12.823Z,4.10
2017-07-25T18:50:40.361Z,4.47
2017-07-25T18:53:07.882Z,5.07
2017-07-25T18:55:35.423Z,6.50
2017-07-25T18:58:02.917Z,5.70
2017-07-25T19:00:30.465Z,5.13
2017-07-25T19:02:57.968Z,4.97
2017-07-25T19:05:25.553Z,5.60
2017-07-25T19:07:53.073Z,4.77
2017-07-25T19:10:20.589Z,4.87
2017-07-25T19:12:48.176Z,4.03
2017-07-25T19:15:15.709Z,5.03
2017-07-25T19:17:43.247Z,5.03
2017-07-25T19:20:18.631Z,4.40
2017-07-25T19:22:46.173Z,4.87
2017-07-25T19:25:13.689Z,4.33
2017-07-25T19:27:41.253Z,4.80
2017-07-25T19:40:17.539Z,4.77
2017-07-25T19:42:45.040Z,4.80
2017-07-25T19:45:12.577Z,4.53
2017-07-25T19:47:40.130Z,4.00
2017-07-25T20:00:16.275Z,5.93
2017-07-25T20:02:43.829Z,5.60
2017-07-25T20:05:11.333Z,4.53
2017-07-25T20:07:38.897Z,5.57
2017-07-25T20:10:06.406Z,4.90
2017-07-25T20:12:33.929Z,5.47
2017-07-25T20:15:01.485Z,4.60
2017-07-25T20:17:28.991Z,4.87
2017-07-25T20:19:56.509Z,5.03
2017-07-25T20:22:24.064Z,4.37
2017-07-25T20:24:51.575Z,4.60
2017-07-25T20:27:19.134Z,4.37
2017-07-25T20:29:46.738Z,5.30
2017-07-25T20:32:14.300Z,4.57
2017-07-25T20:34:41.805Z,5.27
2017-07-25T20:37:09.320Z,4.40
2017-07-25T20:39:36.854Z,4.80
2017-07-25T20:42:04.384Z,4.90
2017-07-25T20:44:31.962Z,4.47
2017-07-25T20:46:59.466Z,5.00
2017-07-25T20:49:27.005Z,4.13
2017-07-25T20:51:54.553Z,3.47
2017-07-25T20:54:22.078Z,4.80
2017-07-25T20:56:49.739Z,5.30
2017-07-25T20:59:17.381Z,4.90
2017-07-25T21:01:44.900Z,4.30
2017-07-25T21:04:12.405Z,4.43
2017-07-25T21:06:39.962Z,5.10
2017-07-25T21:09:07.481Z,5.00
2017-07-25T21:11:34.983Z,4.33
2017-07-25T21:14:02.567Z,4.70
2017-07-25T21:16:30.068Z,4.77
2017-07-25T21:18:57.612Z,4.80
2017-07-25T21:21:25.132Z,4.50
2017-07-25T21:23:52.641Z,4.67
2017-07-25T21:26:20.241Z,4.93
2017-07-25T21:28:47.813Z,4.47
2017-07-25T21:31:15.351Z,4.17
2017-07-25T21:33:42.953Z,4.67
2017-07-25T21:36:10.458Z,4.80
2017-07-25T21:41:28.288Z,4.33
2017-07-25T21:43:55.826Z,4.37
2017-07-25T21:46:23.400Z,5.00
2017-07-25T21:48:50.912Z,4.10
2017-07-25T21:51:18.417Z,4.90
2017-07-25T21:53:46.002Z,4.47
2017-07-25T21:56:13.496Z,5.30
2017-07-25T21:58:48.026Z,4.43
2017-07-25T22:01:15.554Z,4.57
2017-07-25T22:03:43.091Z,4.20
2017-07-25T22:20:27.859Z,4.83
2017-07-25T22:22:55.433Z,4.30
2017-07-25T22:25:22.933Z,4.97
2017-07-25T22:27:50.445Z,4.80
2017-07-25T22:30:25.221Z,4.30
2017-07-25T22:32:52.713Z,3.83
2017-07-25T22:35:20.238Z,4.00
2017-07-25T22:37:47.854Z,4.23
2017-07-25T22:50:24.865Z,4.70
2017-07-25T22:52:52.444Z,4.40
2017-07-25T22:55:19.941Z,4.60
2017-07-25T22:57:47.457Z,5.40
2017-07-25T23:00:15.009Z,4.07
2017-07-25T23:02:42.510Z,4.73
2017-07-25T23:05:10.009Z,3.73
2017-07-25T23:07:37.585Z,4.37
2017-07-25T23:10:05.085Z,4.17
2017-07-25T23:12:32.585Z,4.50
2017-07-25T23:15:00.144Z,4.07
2017-07-25T23:17:27.661Z,3.87
2017-07-25T23:19:55.241Z,3.93
2017-07-25T23:22:22.759Z,4.40
2017-07-25T23:24:50.299Z,4.10
2017-07-25T23:27:17.886Z,4.63
2017-07-25T23:29:45.415Z,4.80
2017-07-25T23:32:12.965Z,4.37
2017-07-25T23:34:40.494Z,4.40
2017-07-25T23:37:08.020Z,4.33
2017-07-25T23:39:35.569Z,4.63
2017-07-25T23:42:03.078Z,4.00
2017-07-25T23:44:30.573Z,3.80
2017-07-25T23:46:58.113Z,4.03
2017-07-25T23:49:25.619Z,3.30
2017-07-25T23:51:53.168Z,3.30
2017-07-25T23:54:20.672Z,3.73
2017-07-25T23:56:48.192Z,4.40
2017-07-25T23:59:23.119Z,4.17
